Nottingham - eastern half: Past 24 Hour Conditions

 

Pond Inlet Airport

09:00 PM EST 21 November 2014
This table is a summary of hourly weather conditions for the past 24 hours.
Date / Time
(EST)
Wind(knots) Conditions Visibility(km) Pressure(kPa) Air tempC) Relative humidity(%) Dew pointC) Wind Chill
21 November 2014
21:00 S 6 N/A N/A 99.8 -27 76 -30 -36
20:00 S 6 N/A 16 99.8 -26 78 -29 -35
19:00 SSE 6 Partly Cloudy 24 99.8 -26 80 -28 -34
18:00 SSE 6 Partly Cloudy 24 99.8 -26 81 -28 -35
17:00 SSE 9 Ice Crystals 24 99.7 -25 82 -28 -36
16:00 S 7 Ice Crystals 24 99.7 -26 78 -29 -36
15:00 SSE 9 Mostly Cloudy 24 99.6 -27 78 -30 -38
14:00 SSE 8 Mainly Clear 24 99.5 -25 80 -28 -35
13:00 SSE 7 Mainly Clear 32 99.5 -26 79 -29 -37
12:00 SSE 8 Mainly Clear 24 99.4 -26 77 -29 -37
11:00 SSE 7 Mainly Clear 24 99.4 -26 77 -29 -36
10:00 SSE 4 Clear 16 99.3 -27 77 -30 -34
9:00 calm Clear 16 99.3 -25 80 -28 *
8:00 SE 4 Clear 16 99.2 -26 80 -28 -33
7:00 SE 8 Clear 16 99.2 -25 82 -27 -36
6:00 SE 8 Cloudy 16 99.1 -24 83 -26 -34
5:00 SE 7 Cloudy 16 99.1 -24 81 -27 -34
4:00 SE 8 Cloudy 16 99.0 -24 80 -26 -33
3:00 SE 8 Cloudy 16 99.0 -23 82 -26 -33
2:00 SSE 7 Cloudy 16 99.0 -22 83 -24 -31
1:00 SSE 8 Cloudy 13 98.9 -22 83 -24 -31
0:00 SSE 9 Cloudy 15 99.0 -22 83 -24 -32
20 November 2014
23:00 S 8 Cloudy 16 99.0 -22 83 -24 -31
22:00 SSE 9 Cloudy 16 99.0 -22 83 -24 -32
21:00 SSE 8 Cloudy 16 99.1 -22 83 -24 -32
 
Map of Arctic - Eastern Arctic marine weather areas Baker Lake Airport Chesterfield Inlet Airport Coral Harbour Airport Gjoa Haven Airport Kugaaruk Airport Rankin Inlet Airport Shepherd Bay Airport Whale Cove Airport Arctic Bay Brevoort Island Qikiqtarjuaq Airport Cape Dorset Airport Cape Dyer Cape Hooper Clyde Airport Grise Fiord Airport Hall Beach Airport Igloolik Airport Iqaluit Airport Longstaff Bluff Pangnirtung Airport Pond Inlet Airport Repulse Bay Airport Resolute Airport Resolution Island Rowley Island Airport Taloyoak Airport Wager Bay Akulivik Airport Ivujivik Airport Puvirnituq Airport Kangiqsujuaq Airport Kangirsuk Airport Quaqtaq Airport Tasiujaq Airport Cape Kakkiviak Cape Kiglapait Nain Airport Saglek Cape Mercy Kimmirut Airport Aupaluk Airport Salluit Airport Kangiqsualujjuaq Airport Fort Ross
Legend: buoyBuoy land stationLand Station